sensor_id;sensor_type;location;lat;lon;timestamp;P1;durP1;ratioP1;P2;durP2;ratioP2
3443;SDS011;1736;52.068;6.968;2023-03-01T00:01:01;13.20;;;8.43;;
3443;SDS011;1736;52.068;6.968;2023-03-01T00:03:29;14.97;;;8.80;;
3443;SDS011;1736;52.068;6.968;2023-03-01T00:05:57;12.07;;;8.77;;
3443;SDS011;1736;52.068;6.968;2023-03-01T00:08:24;14.53;;;8.30;;
3443;SDS011;1736;52.068;6.968;2023-03-01T00:10:59;19.40;;;8.20;;
3443;SDS011;1736;52.068;6.968;2023-03-01T00:13:27;12.40;;;8.80;;
3443;SDS011;1736;52.068;6.968;2023-03-01T00:15:53;14.77;;;8.73;;
3443;SDS011;1736;52.068;6.968;2023-03-01T00:18:21;12.47;;;7.93;;
3443;SDS011;1736;52.068;6.968;2023-03-01T00:20:49;12.43;;;8.00;;
3443;SDS011;1736;52.068;6.968;2023-03-01T00:23:17;12.87;;;8.40;;
3443;SDS011;1736;52.068;6.968;2023-03-01T00:25:43;13.57;;;7.97;;
3443;SDS011;1736;52.068;6.968;2023-03-01T00:28:10;14.50;;;7.90;;
3443;SDS011;1736;52.068;6.968;2023-03-01T00:30:37;12.90;;;8.60;;
3443;SDS011;1736;52.068;6.968;2023-03-01T00:33:03;11.43;;;7.93;;
3443;SDS011;1736;52.068;6.968;2023-03-01T00:35:33;14.90;;;8.60;;
3443;SDS011;1736;52.068;6.968;2023-03-01T00:38:00;10.40;;;8.00;;
3443;SDS011;1736;52.068;6.968;2023-03-01T00:40:27;14.30;;;8.50;;
3443;SDS011;1736;52.068;6.968;2023-03-01T00:42:54;11.37;;;8.33;;
3443;SDS011;1736;52.068;6.968;2023-03-01T00:45:21;13.53;;;8.00;;
3443;SDS011;1736;52.068;6.968;2023-03-01T00:47:48;13.67;;;8.80;;
3443;SDS011;1736;52.068;6.968;2023-03-01T00:50:15;11.70;;;7.73;;
3443;SDS011;1736;52.068;6.968;2023-03-01T00:52:43;13.70;;;8.60;;
3443;SDS011;1736;52.068;6.968;2023-03-01T00:55:10;11.80;;;7.90;;
3443;SDS011;1736;52.068;6.968;2023-03-01T00:57:37;14.37;;;8.17;;
3443;SDS011;1736;52.068;6.968;2023-03-01T01:00:04;9.93;;;7.53;;
3443;SDS011;1736;52.068;6.968;2023-03-01T01:02:33;15.50;;;8.93;;
3443;SDS011;1736;52.068;6.968;2023-03-01T01:04:59;12.23;;;8.50;;
3443;SDS011;1736;52.068;6.968;2023-03-01T01:07:26;12.70;;;8.50;;
3443;SDS011;1736;52.068;6.968;2023-03-01T01:09:54;14.77;;;8.50;;
3443;SDS011;1736;52.068;6.968;2023-03-01T01:12:21;14.60;;;9.50;;
3443;SDS011;1736;52.068;6.968;2023-03-01T01:14:47;13.07;;;8.53;;
3443;SDS011;1736;52.068;6.968;2023-03-01T01:17:14;12.90;;;7.87;;
3443;SDS011;1736;52.068;6.968;2023-03-01T01:19:40;13.57;;;8.70;;
3443;SDS011;1736;52.068;6.968;2023-03-01T01:22:07;15.03;;;8.80;;
3443;SDS011;1736;52.068;6.968;2023-03-01T01:24:34;16.20;;;8.93;;
3443;SDS011;1736;52.068;6.968;2023-03-01T01:27:02;12.87;;;8.43;;
3443;SDS011;1736;52.068;6.968;2023-03-01T01:29:29;14.97;;;8.40;;
3443;SDS011;1736;52.068;6.968;2023-03-01T01:31:56;17.57;;;8.57;;
3443;SDS011;1736;52.068;6.968;2023-03-01T01:34:22;11.13;;;8.13;;
3443;SDS011;1736;52.068;6.968;2023-03-01T01:36:49;14.97;;;8.40;;
3443;SDS011;1736;52.068;6.968;2023-03-01T01:39:18;16.50;;;8.10;;
3443;SDS011;1736;52.068;6.968;2023-03-01T01:41:45;11.70;;;7.50;;
3443;SDS011;1736;52.068;6.968;2023-03-01T01:44:14;10.73;;;7.20;;
3443;SDS011;1736;52.068;6.968;2023-03-01T01:46:42;10.17;;;7.30;;
3443;SDS011;1736;52.068;6.968;2023-03-01T01:49:16;12.97;;;7.07;;
3443;SDS011;1736;52.068;6.968;2023-03-01T01:51:48;15.90;;;7.90;;
3443;SDS011;1736;52.068;6.968;2023-03-01T01:54:19;9.73;;;7.57;;
3443;SDS011;1736;52.068;6.968;2023-03-01T01:56:50;14.70;;;8.67;;
3443;SDS011;1736;52.068;6.968;2023-03-01T01:59:21;11.03;;;7.00;;
3443;SDS011;1736;52.068;6.968;2023-03-01T02:01:50;13.33;;;6.90;;
3443;SDS011;1736;52.068;6.968;2023-03-01T02:04:17;12.00;;;7.40;;
3443;SDS011;1736;52.068;6.968;2023-03-01T02:06:45;10.47;;;7.00;;
3443;SDS011;1736;52.068;6.968;2023-03-01T02:09:18;15.93;;;7.40;;
3443;SDS011;1736;52.068;6.968;2023-03-01T02:11:46;12.43;;;7.60;;
3443;SDS011;1736;52.068;6.968;2023-03-01T02:14:14;11.63;;;7.43;;
3443;SDS011;1736;52.068;6.968;2023-03-01T02:16:42;11.63;;;7.90;;
3443;SDS011;1736;52.068;6.968;2023-03-01T02:19:09;14.40;;;7.23;;
3443;SDS011;1736;52.068;6.968;2023-03-01T02:21:48;11.93;;;8.07;;
3443;SDS011;1736;52.068;6.968;2023-03-01T02:24:24;12.43;;;6.97;;
3443;SDS011;1736;52.068;6.968;2023-03-01T02:26:59;11.67;;;7.37;;
3443;SDS011;1736;52.068;6.968;2023-03-01T02:29:28;10.60;;;7.60;;
3443;SDS011;1736;52.068;6.968;2023-03-01T02:31:55;12.23;;;7.40;;
3443;SDS011;1736;52.068;6.968;2023-03-01T02:34:24;12.30;;;7.60;;
3443;SDS011;1736;52.068;6.968;2023-03-01T02:36:53;10.23;;;8.10;;
3443;SDS011;1736;52.068;6.968;2023-03-01T02:39:23;11.33;;;7.30;;
3443;SDS011;1736;52.068;6.968;2023-03-01T02:41:54;13.67;;;7.20;;
3443;SDS011;1736;52.068;6.968;2023-03-01T02:44:24;10.13;;;7.47;;
3443;SDS011;1736;52.068;6.968;2023-03-01T02:46:52;13.13;;;7.13;;
3443;SDS011;1736;52.068;6.968;2023-03-01T02:49:23;11.80;;;7.37;;
3443;SDS011;1736;52.068;6.968;2023-03-01T02:51:58;10.40;;;7.70;;
3443;SDS011;1736;52.068;6.968;2023-03-01T02:54:36;9.93;;;7.27;;
3443;SDS011;1736;52.068;6.968;2023-03-01T02:57:06;11.67;;;7.17;;
3443;SDS011;1736;52.068;6.968;2023-03-01T02:59:34;12.73;;;7.63;;
3443;SDS011;1736;52.068;6.968;2023-03-01T03:02:05;12.83;;;8.03;;
3443;SDS011;1736;52.068;6.968;2023-03-01T03:04:32;11.47;;;6.70;;
3443;SDS011;1736;52.068;6.968;2023-03-01T03:06:59;12.90;;;7.30;;
3443;SDS011;1736;52.068;6.968;2023-03-01T03:09:25;14.87;;;7.60;;
3443;SDS011;1736;52.068;6.968;2023-03-01T03:11:53;10.50;;;7.60;;
3443;SDS011;1736;52.068;6.968;2023-03-01T03:14:19;11.90;;;7.40;;
3443;SDS011;1736;52.068;6.968;2023-03-01T03:16:47;16.43;;;7.63;;
3443;SDS011;1736;52.068;6.968;2023-03-01T03:19:16;11.70;;;7.93;;
3443;SDS011;1736;52.068;6.968;2023-03-01T03:21:44;10.60;;;6.97;;
3443;SDS011;1736;52.068;6.968;2023-03-01T03:24:11;12.47;;;7.50;;
3443;SDS011;1736;52.068;6.968;2023-03-01T03:26:37;10.63;;;7.27;;
3443;SDS011;1736;52.068;6.968;2023-03-01T03:29:04;12.50;;;7.33;;
3443;SDS011;1736;52.068;6.968;2023-03-01T03:31:30;11.33;;;7.27;;
3443;SDS011;1736;52.068;6.968;2023-03-01T03:33:57;8.23;;;6.60;;
3443;SDS011;1736;52.068;6.968;2023-03-01T03:36:26;13.10;;;7.67;;
3443;SDS011;1736;52.068;6.968;2023-03-01T03:38:53;9.57;;;6.87;;
3443;SDS011;1736;52.068;6.968;2023-03-01T03:41:19;11.00;;;7.37;;
3443;SDS011;1736;52.068;6.968;2023-03-01T03:43:46;14.53;;;7.40;;
3443;SDS011;1736;52.068;6.968;2023-03-01T03:46:14;13.40;;;8.00;;
3443;SDS011;1736;52.068;6.968;2023-03-01T03:48:42;9.97;;;6.33;;
3443;SDS011;1736;52.068;6.968;2023-03-01T03:51:10;12.40;;;7.63;;
3443;SDS011;1736;52.068;6.968;2023-03-01T03:53:39;10.70;;;6.83;;
3443;SDS011;1736;52.068;6.968;2023-03-01T03:56:06;11.00;;;7.00;;
3443;SDS011;1736;52.068;6.968;2023-03-01T03:58:34;13.30;;;7.17;;
3443;SDS011;1736;52.068;6.968;2023-03-01T04:01:00;9.53;;;7.13;;
3443;SDS011;1736;52.068;6.968;2023-03-01T04:03:28;9.93;;;6.77;;
3443;SDS011;1736;52.068;6.968;2023-03-01T04:05:56;15.70;;;8.03;;
3443;SDS011;1736;52.068;6.968;2023-03-01T04:08:23;10.93;;;6.47;;
3443;SDS011;1736;52.068;6.968;2023-03-01T04:10:52;12.50;;;7.23;;
3443;SDS011;1736;52.068;6.968;2023-03-01T04:13:23;9.77;;;7.63;;
3443;SDS011;1736;52.068;6.968;2023-03-01T04:15:50;12.87;;;7.10;;
3443;SDS011;1736;52.068;6.968;2023-03-01T04:18:18;10.53;;;7.23;;
3443;SDS011;1736;52.068;6.968;2023-03-01T04:20:46;11.50;;;7.17;;
3443;SDS011;1736;52.068;6.968;2023-03-01T04:23:13;9.10;;;7.33;;
3443;SDS011;1736;52.068;6.968;2023-03-01T04:25:45;13.47;;;8.43;;
3443;SDS011;1736;52.068;6.968;2023-03-01T04:28:20;10.50;;;7.47;;
3443;SDS011;1736;52.068;6.968;2023-03-01T04:30:49;11.47;;;7.03;;
3443;SDS011;1736;52.068;6.968;2023-03-01T04:33:16;13.63;;;7.10;;
3443;SDS011;1736;52.068;6.968;2023-03-01T04:35:42;12.90;;;6.80;;
3443;SDS011;1736;52.068;6.968;2023-03-01T04:38:09;11.67;;;7.30;;
3443;SDS011;1736;52.068;6.968;2023-03-01T04:40:36;9.60;;;7.57;;
3443;SDS011;1736;52.068;6.968;2023-03-01T04:43:03;14.37;;;7.97;;
3443;SDS011;1736;52.068;6.968;2023-03-01T04:45:32;13.17;;;7.67;;
3443;SDS011;1736;52.068;6.968;2023-03-01T04:48:00;12.33;;;7.87;;
3443;SDS011;1736;52.068;6.968;2023-03-01T04:50:27;12.40;;;8.30;;
3443;SDS011;1736;52.068;6.968;2023-03-01T04:52:54;15.87;;;9.70;;
3443;SDS011;1736;52.068;6.968;2023-03-01T04:55:23;16.53;;;8.23;;
3443;SDS011;1736;52.068;6.968;2023-03-01T04:57:51;12.27;;;8.27;;
3443;SDS011;1736;52.068;6.968;2023-03-01T05:00:18;12.03;;;8.10;;
3443;SDS011;1736;52.068;6.968;2023-03-01T05:02:51;14.60;;;8.60;;
3443;SDS011;1736;52.068;6.968;2023-03-01T05:05:23;13.43;;;7.60;;
3443;SDS011;1736;52.068;6.968;2023-03-01T05:07:52;12.27;;;7.33;;
3443;SDS011;1736;52.068;6.968;2023-03-01T05:10:20;10.17;;;7.13;;
3443;SDS011;1736;52.068;6.968;2023-03-01T05:12:46;12.93;;;6.70;;
3443;SDS011;1736;52.068;6.968;2023-03-01T05:15:13;13.30;;;8.13;;
3443;SDS011;1736;52.068;6.968;2023-03-01T05:17:39;10.17;;;6.60;;
3443;SDS011;1736;52.068;6.968;2023-03-01T05:20:09;12.90;;;7.20;;
3443;SDS011;1736;52.068;6.968;2023-03-01T05:22:37;9.40;;;6.90;;
3443;SDS011;1736;52.068;6.968;2023-03-01T05:25:04;12.37;;;7.47;;
3443;SDS011;1736;52.068;6.968;2023-03-01T05:27:32;9.73;;;6.97;;
3443;SDS011;1736;52.068;6.968;2023-03-01T05:29:58;8.00;;;6.37;;
3443;SDS011;1736;52.068;6.968;2023-03-01T05:32:38;10.20;;;6.83;;
3443;SDS011;1736;52.068;6.968;2023-03-01T05:35:06;11.10;;;7.23;;
3443;SDS011;1736;52.068;6.968;2023-03-01T05:37:34;11.17;;;7.40;;
3443;SDS011;1736;52.068;6.968;2023-03-01T05:40:01;11.80;;;7.33;;
3443;SDS011;1736;52.068;6.968;2023-03-01T05:42:28;9.27;;;6.40;;
3443;SDS011;1736;52.068;6.968;2023-03-01T05:44:55;9.37;;;6.47;;
3443;SDS011;1736;52.068;6.968;2023-03-01T05:47:22;10.60;;;7.20;;
3443;SDS011;1736;52.068;6.968;2023-03-01T05:49:49;12.00;;;7.87;;
3443;SDS011;1736;52.068;6.968;2023-03-01T05:52:15;11.60;;;7.13;;
3443;SDS011;1736;52.068;6.968;2023-03-01T05:54:43;9.60;;;6.57;;
3443;SDS011;1736;52.068;6.968;2023-03-01T05:57:10;10.83;;;7.57;;
3443;SDS011;1736;52.068;6.968;2023-03-01T05:59:37;8.70;;;6.30;;
3443;SDS011;1736;52.068;6.968;2023-03-01T06:02:04;13.20;;;8.30;;
3443;SDS011;1736;52.068;6.968;2023-03-01T06:04:30;12.63;;;7.27;;
3443;SDS011;1736;52.068;6.968;2023-03-01T06:06:57;11.37;;;7.33;;
3443;SDS011;1736;52.068;6.968;2023-03-01T06:09:24;13.00;;;7.20;;
3443;SDS011;1736;52.068;6.968;2023-03-01T06:11:52;11.07;;;7.80;;
3443;SDS011;1736;52.068;6.968;2023-03-01T06:14:19;12.90;;;8.73;;
3443;SDS011;1736;52.068;6.968;2023-03-01T06:16:45;11.77;;;7.83;;
3443;SDS011;1736;52.068;6.968;2023-03-01T06:19:12;14.20;;;7.63;;
3443;SDS011;1736;52.068;6.968;2023-03-01T06:21:39;9.43;;;6.73;;
3443;SDS011;1736;52.068;6.968;2023-03-01T06:24:06;11.50;;;8.17;;
3443;SDS011;1736;52.068;6.968;2023-03-01T06:26:33;13.43;;;8.27;;
3443;SDS011;1736;52.068;6.968;2023-03-01T06:29:01;11.33;;;7.60;;
3443;SDS011;1736;52.068;6.968;2023-03-01T06:31:27;13.17;;;7.20;;
3443;SDS011;1736;52.068;6.968;2023-03-01T06:33:54;12.43;;;7.47;;
3443;SDS011;1736;52.068;6.968;2023-03-01T06:36:21;22.73;;;9.33;;
3443;SDS011;1736;52.068;6.968;2023-03-01T06:38:47;14.27;;;8.67;;
3443;SDS011;1736;52.068;6.968;2023-03-01T06:41:14;12.33;;;8.83;;
3443;SDS011;1736;52.068;6.968;2023-03-01T06:43:40;10.97;;;8.30;;
3443;SDS011;1736;52.068;6.968;2023-03-01T06:46:08;12.80;;;9.00;;
3443;SDS011;1736;52.068;6.968;2023-03-01T06:48:35;16.27;;;9.80;;
3443;SDS011;1736;52.068;6.968;2023-03-01T06:51:02;13.83;;;9.63;;
3443;SDS011;1736;52.068;6.968;2023-03-01T06:53:29;15.40;;;9.13;;
3443;SDS011;1736;52.068;6.968;2023-03-01T06:55:56;18.60;;;10.77;;
3443;SDS011;1736;52.068;6.968;2023-03-01T06:58:24;17.57;;;11.17;;
3443;SDS011;1736;52.068;6.968;2023-03-01T07:00:50;16.47;;;10.83;;
3443;SDS011;1736;52.068;6.968;2023-03-01T07:03:18;15.70;;;9.93;;
3443;SDS011;1736;52.068;6.968;2023-03-01T07:05:45;15.97;;;9.93;;
3443;SDS011;1736;52.068;6.968;2023-03-01T07:08:14;19.50;;;11.73;;
3443;SDS011;1736;52.068;6.968;2023-03-01T07:10:40;15.40;;;10.50;;
3443;SDS011;1736;52.068;6.968;2023-03-01T07:13:07;25.20;;;11.60;;
3443;SDS011;1736;52.068;6.968;2023-03-01T07:15:34;16.70;;;11.07;;
3443;SDS011;1736;52.068;6.968;2023-03-01T07:18:01;19.33;;;10.60;;
3443;SDS011;1736;52.068;6.968;2023-03-01T07:20:30;16.53;;;10.50;;
3443;SDS011;1736;52.068;6.968;2023-03-01T07:22:56;16.67;;;11.57;;
3443;SDS011;1736;52.068;6.968;2023-03-01T07:25:23;22.37;;;11.80;;
3443;SDS011;1736;52.068;6.968;2023-03-01T07:27:50;21.50;;;12.23;;
3443;SDS011;1736;52.068;6.968;2023-03-01T07:30:17;14.77;;;10.17;;
3443;SDS011;1736;52.068;6.968;2023-03-01T07:32:45;19.70;;;11.77;;
3443;SDS011;1736;52.068;6.968;2023-03-01T07:35:11;21.30;;;12.43;;
3443;SDS011;1736;52.068;6.968;2023-03-01T07:37:41;17.50;;;11.17;;
3443;SDS011;1736;52.068;6.968;2023-03-01T07:40:08;17.43;;;10.87;;
3443;SDS011;1736;52.068;6.968;2023-03-01T07:42:36;14.67;;;9.60;;
3443;SDS011;1736;52.068;6.968;2023-03-01T07:45:03;16.67;;;11.37;;
3443;SDS011;1736;52.068;6.968;2023-03-01T07:47:31;15.30;;;10.70;;
3443;SDS011;1736;52.068;6.968;2023-03-01T07:49:58;13.47;;;10.27;;
3443;SDS011;1736;52.068;6.968;2023-03-01T07:52:26;16.23;;;9.90;;
3443;SDS011;1736;52.068;6.968;2023-03-01T07:54:54;18.10;;;10.57;;
3443;SDS011;1736;52.068;6.968;2023-03-01T07:57:20;13.83;;;10.03;;
3443;SDS011;1736;52.068;6.968;2023-03-01T07:59:47;14.80;;;9.00;;
3443;SDS011;1736;52.068;6.968;2023-03-01T08:02:14;13.40;;;8.87;;
3443;SDS011;1736;52.068;6.968;2023-03-01T08:04:41;13.60;;;8.63;;
3443;SDS011;1736;52.068;6.968;2023-03-01T08:07:08;12.37;;;8.80;;
3443;SDS011;1736;52.068;6.968;2023-03-01T08:09:34;9.57;;;7.50;;
3443;SDS011;1736;52.068;6.968;2023-03-01T08:12:03;15.27;;;8.97;;
3443;SDS011;1736;52.068;6.968;2023-03-01T08:14:30;16.03;;;8.60;;
3443;SDS011;1736;52.068;6.968;2023-03-01T08:16:57;13.83;;;8.40;;
3443;SDS011;1736;52.068;6.968;2023-03-01T08:19:24;20.63;;;8.50;;
3443;SDS011;1736;52.068;6.968;2023-03-01T08:21:53;12.20;;;7.83;;
3443;SDS011;1736;52.068;6.968;2023-03-01T08:24:19;11.83;;;8.43;;
3443;SDS011;1736;52.068;6.968;2023-03-01T08:26:46;11.60;;;8.03;;
3443;SDS011;1736;52.068;6.968;2023-03-01T08:29:14;11.07;;;7.80;;
3443;SDS011;1736;52.068;6.968;2023-03-01T08:31:40;11.40;;;8.47;;
3443;SDS011;1736;52.068;6.968;2023-03-01T08:34:09;10.27;;;7.67;;
3443;SDS011;1736;52.068;6.968;2023-03-01T08:36:38;11.57;;;6.80;;
3443;SDS011;1736;52.068;6.968;2023-03-01T08:39:07;10.07;;;7.03;;
3443;SDS011;1736;52.068;6.968;2023-03-01T08:41:35;10.73;;;7.03;;
3443;SDS011;1736;52.068;6.968;2023-03-01T08:44:01;9.50;;;6.13;;
3443;SDS011;1736;52.068;6.968;2023-03-01T08:46:31;12.40;;;7.40;;
3443;SDS011;1736;52.068;6.968;2023-03-01T08:48:58;11.33;;;7.80;;
3443;SDS011;1736;52.068;6.968;2023-03-01T08:51:25;9.07;;;6.63;;
3443;SDS011;1736;52.068;6.968;2023-03-01T08:53:53;10.20;;;7.13;;
3443;SDS011;1736;52.068;6.968;2023-03-01T08:56:20;12.40;;;8.10;;
3443;SDS011;1736;52.068;6.968;2023-03-01T08:58:47;10.43;;;6.33;;
3443;SDS011;1736;52.068;6.968;2023-03-01T09:01:15;9.23;;;7.00;;
3443;SDS011;1736;52.068;6.968;2023-03-01T09:03:45;9.77;;;7.30;;
3443;SDS011;1736;52.068;6.968;2023-03-01T09:06:12;13.00;;;7.80;;
3443;SDS011;1736;52.068;6.968;2023-03-01T09:08:41;9.97;;;6.77;;
3443;SDS011;1736;52.068;6.968;2023-03-01T09:11:10;9.97;;;7.80;;
3443;SDS011;1736;52.068;6.968;2023-03-01T09:13:38;9.60;;;6.80;;
3443;SDS011;1736;52.068;6.968;2023-03-01T09:16:05;10.97;;;6.83;;
3443;SDS011;1736;52.068;6.968;2023-03-01T09:18:33;15.50;;;6.07;;
3443;SDS011;1736;52.068;6.968;2023-03-01T09:21:02;8.03;;;6.00;;
3443;SDS011;1736;52.068;6.968;2023-03-01T09:23:32;8.70;;;6.40;;
3443;SDS011;1736;52.068;6.968;2023-03-01T09:25:58;7.30;;;5.60;;
3443;SDS011;1736;52.068;6.968;2023-03-01T09:28:25;7.83;;;6.10;;
3443;SDS011;1736;52.068;6.968;2023-03-01T09:30:51;8.10;;;5.90;;
3443;SDS011;1736;52.068;6.968;2023-03-01T09:33:18;8.20;;;6.07;;
3443;SDS011;1736;52.068;6.968;2023-03-01T09:35:44;10.70;;;6.23;;
3443;SDS011;1736;52.068;6.968;2023-03-01T09:38:14;8.90;;;6.53;;
3443;SDS011;1736;52.068;6.968;2023-03-01T09:40:43;6.87;;;5.60;;
3443;SDS011;1736;52.068;6.968;2023-03-01T09:43:14;10.40;;;6.00;;
3443;SDS011;1736;52.068;6.968;2023-03-01T09:45:46;7.37;;;5.50;;
3443;SDS011;1736;52.068;6.968;2023-03-01T09:48:16;6.33;;;5.60;;
3443;SDS011;1736;52.068;6.968;2023-03-01T09:50:47;8.33;;;6.30;;
3443;SDS011;1736;52.068;6.968;2023-03-01T09:53:15;8.50;;;6.03;;
3443;SDS011;1736;52.068;6.968;2023-03-01T09:55:45;8.73;;;6.03;;
3443;SDS011;1736;52.068;6.968;2023-03-01T09:58:29;8.70;;;6.23;;
3443;SDS011;1736;52.068;6.968;2023-03-01T10:01:09;8.13;;;5.43;;
3443;SDS011;1736;52.068;6.968;2023-03-01T10:03:44;10.03;;;6.37;;
3443;SDS011;1736;52.068;6.968;2023-03-01T10:06:24;9.90;;;5.90;;
3443;SDS011;1736;52.068;6.968;2023-03-01T10:08:53;9.80;;;6.37;;
3443;SDS011;1736;52.068;6.968;2023-03-01T10:11:23;7.53;;;6.20;;
3443;SDS011;1736;52.068;6.968;2023-03-01T10:13:55;9.30;;;6.10;;
3443;SDS011;1736;52.068;6.968;2023-03-01T10:16:28;8.83;;;6.50;;
3443;SDS011;1736;52.068;6.968;2023-03-01T10:19:08;8.73;;;6.00;;
3443;SDS011;1736;52.068;6.968;2023-03-01T10:21:41;7.87;;;5.60;;
3443;SDS011;1736;52.068;6.968;2023-03-01T10:24:13;8.10;;;5.70;;
3443;SDS011;1736;52.068;6.968;2023-03-01T10:26:44;18.87;;;6.43;;
3443;SDS011;1736;52.068;6.968;2023-03-01T10:29:17;8.50;;;6.03;;
3443;SDS011;1736;52.068;6.968;2023-03-01T10:31:48;10.20;;;5.73;;
3443;SDS011;1736;52.068;6.968;2023-03-01T10:34:17;7.43;;;5.60;;
3443;SDS011;1736;52.068;6.968;2023-03-01T10:36:47;6.73;;;6.00;;
3443;SDS011;1736;52.068;6.968;2023-03-01T10:39:18;10.60;;;7.33;;
3443;SDS011;1736;52.068;6.968;2023-03-01T10:41:56;9.77;;;6.87;;
3443;SDS011;1736;52.068;6.968;2023-03-01T10:44:41;10.03;;;6.77;;
3443;SDS011;1736;52.068;6.968;2023-03-01T10:47:13;11.30;;;6.90;;
3443;SDS011;1736;52.068;6.968;2023-03-01T10:49:53;8.10;;;6.33;;
3443;SDS011;1736;52.068;6.968;2023-03-01T10:52:22;11.17;;;7.03;;
3443;SDS011;1736;52.068;6.968;2023-03-01T10:54:53;12.50;;;6.57;;
3443;SDS011;1736;52.068;6.968;2023-03-01T10:57:29;9.10;;;6.60;;
3443;SDS011;1736;52.068;6.968;2023-03-01T11:00:13;7.73;;;6.03;;
3443;SDS011;1736;52.068;6.968;2023-03-01T11:02:45;10.57;;;6.93;;
3443;SDS011;1736;52.068;6.968;2023-03-01T11:05:16;11.00;;;6.70;;
3443;SDS011;1736;52.068;6.968;2023-03-01T11:07:49;12.27;;;7.13;;
3443;SDS011;1736;52.068;6.968;2023-03-01T11:10:18;10.97;;;7.10;;
3443;SDS011;1736;52.068;6.968;2023-03-01T11:12:47;14.83;;;7.30;;
3443;SDS011;1736;52.068;6.968;2023-03-01T11:15:20;10.77;;;6.20;;
3443;SDS011;1736;52.068;6.968;2023-03-01T11:17:52;15.37;;;6.90;;
3443;SDS011;1736;52.068;6.968;2023-03-01T11:20:23;11.23;;;7.10;;
3443;SDS011;1736;52.068;6.968;2023-03-01T11:22:53;11.30;;;6.40;;
3443;SDS011;1736;52.068;6.968;2023-03-01T11:25:25;11.90;;;7.27;;
3443;SDS011;1736;52.068;6.968;2023-03-01T11:27:54;8.87;;;6.37;;
3443;SDS011;1736;52.068;6.968;2023-03-01T11:30:23;11.03;;;7.40;;
3443;SDS011;1736;52.068;6.968;2023-03-01T11:32:57;7.87;;;6.33;;
3443;SDS011;1736;52.068;6.968;2023-03-01T11:35:31;9.27;;;6.53;;
3443;SDS011;1736;52.068;6.968;2023-03-01T11:38:03;10.47;;;7.50;;
3443;SDS011;1736;52.068;6.968;2023-03-01T11:40:45;11.47;;;8.00;;
3443;SDS011;1736;52.068;6.968;2023-03-01T11:43:17;9.30;;;6.70;;
3443;SDS011;1736;52.068;6.968;2023-03-01T11:45:57;10.30;;;7.47;;
3443;SDS011;1736;52.068;6.968;2023-03-01T11:48:37;10.37;;;7.07;;
3443;SDS011;1736;52.068;6.968;2023-03-01T11:51:24;8.07;;;6.40;;
3443;SDS011;1736;52.068;6.968;2023-03-01T11:54:05;8.53;;;6.40;;
3443;SDS011;1736;52.068;6.968;2023-03-01T11:56:40;9.77;;;7.20;;
3443;SDS011;1736;52.068;6.968;2023-03-01T11:59:17;9.50;;;6.43;;
3443;SDS011;1736;52.068;6.968;2023-03-01T12:02:07;10.10;;;6.47;;
3443;SDS011;1736;52.068;6.968;2023-03-01T12:04:53;7.50;;;6.00;;
3443;SDS011;1736;52.068;6.968;2023-03-01T12:07:27;9.57;;;6.63;;
3443;SDS011;1736;52.068;6.968;2023-03-01T12:10:18;10.30;;;6.70;;
3443;SDS011;1736;52.068;6.968;2023-03-01T12:12:53;10.83;;;6.43;;
3443;SDS011;1736;52.068;6.968;2023-03-01T12:15:42;8.63;;;5.50;;
3443;SDS011;1736;52.068;6.968;2023-03-01T12:18:32;11.53;;;6.30;;
3443;SDS011;1736;52.068;6.968;2023-03-01T12:21:18;9.17;;;6.10;;
3443;SDS011;1736;52.068;6.968;2023-03-01T12:27:08;8.07;;;5.70;;
3443;SDS011;1736;52.068;6.968;2023-03-01T12:29:48;13.97;;;5.77;;
3443;SDS011;1736;52.068;6.968;2023-03-01T12:32:24;7.90;;;5.33;;
3443;SDS011;1736;52.068;6.968;2023-03-01T12:35:05;10.60;;;5.70;;
3443;SDS011;1736;52.068;6.968;2023-03-01T12:37:49;7.97;;;5.90;;
3443;SDS011;1736;52.068;6.968;2023-03-01T12:40:31;8.70;;;5.63;;
3443;SDS011;1736;52.068;6.968;2023-03-01T12:43:12;8.07;;;5.47;;
3443;SDS011;1736;52.068;6.968;2023-03-01T12:45:50;8.47;;;5.83;;
3443;SDS011;1736;52.068;6.968;2023-03-01T12:48:31;7.23;;;4.97;;
3443;SDS011;1736;52.068;6.968;2023-03-01T12:51:06;8.40;;;5.47;;
3443;SDS011;1736;52.068;6.968;2023-03-01T12:53:36;7.83;;;5.40;;
3443;SDS011;1736;52.068;6.968;2023-03-01T12:56:06;6.93;;;4.97;;
3443;SDS011;1736;52.068;6.968;2023-03-01T12:58:38;7.10;;;4.90;;
3443;SDS011;1736;52.068;6.968;2023-03-01T13:01:16;8.10;;;5.77;;
3443;SDS011;1736;52.068;6.968;2023-03-01T13:03:55;8.93;;;6.17;;
3443;SDS011;1736;52.068;6.968;2023-03-01T13:06:38;6.77;;;4.77;;
3443;SDS011;1736;52.068;6.968;2023-03-01T13:09:13;10.33;;;5.13;;
3443;SDS011;1736;52.068;6.968;2023-03-01T13:11:46;8.20;;;6.00;;
3443;SDS011;1736;52.068;6.968;2023-03-01T13:17:07;6.40;;;5.00;;
3443;SDS011;1736;52.068;6.968;2023-03-01T13:19:58;6.73;;;5.50;;
3443;SDS011;1736;52.068;6.968;2023-03-01T13:22:26;5.50;;;5.00;;
3443;SDS011;1736;52.068;6.968;2023-03-01T13:25:00;6.20;;;5.17;;
3443;SDS011;1736;52.068;6.968;2023-03-01T13:27:29;7.40;;;5.57;;
3443;SDS011;1736;52.068;6.968;2023-03-01T13:29:58;6.07;;;5.27;;
3443;SDS011;1736;52.068;6.968;2023-03-01T13:32:32;9.30;;;5.60;;
3443;SDS011;1736;52.068;6.968;2023-03-01T13:35:04;6.27;;;4.57;;
3443;SDS011;1736;52.068;6.968;2023-03-01T13:41:11;6.43;;;4.57;;
3443;SDS011;1736;52.068;6.968;2023-03-01T13:43:38;5.73;;;4.70;;
3443;SDS011;1736;52.068;6.968;2023-03-01T13:46:08;5.10;;;4.27;;
3443;SDS011;1736;52.068;6.968;2023-03-01T13:48:38;5.73;;;4.60;;
3443;SDS011;1736;52.068;6.968;2023-03-01T13:51:07;6.13;;;4.43;;
3443;SDS011;1736;52.068;6.968;2023-03-01T13:53:36;7.30;;;4.60;;
3443;SDS011;1736;52.068;6.968;2023-03-01T13:56:07;7.53;;;4.57;;
3443;SDS011;1736;52.068;6.968;2023-03-01T13:58:44;5.30;;;4.07;;
3443;SDS011;1736;52.068;6.968;2023-03-01T14:01:20;4.43;;;4.03;;
3443;SDS011;1736;52.068;6.968;2023-03-01T14:03:48;4.13;;;3.67;;
3443;SDS011;1736;52.068;6.968;2023-03-01T14:06:19;5.50;;;3.80;;
3443;SDS011;1736;52.068;6.968;2023-03-01T14:08:48;5.30;;;4.50;;
3443;SDS011;1736;52.068;6.968;2023-03-01T14:14:29;7.30;;;4.97;;
3443;SDS011;1736;52.068;6.968;2023-03-01T14:17:04;5.47;;;4.20;;
3443;SDS011;1736;52.068;6.968;2023-03-01T14:19:42;5.27;;;3.97;;
3443;SDS011;1736;52.068;6.968;2023-03-01T14:22:15;4.93;;;4.00;;
3443;SDS011;1736;52.068;6.968;2023-03-01T14:24:48;5.00;;;3.90;;
3443;SDS011;1736;52.068;6.968;2023-03-01T14:27:16;5.53;;;4.37;;
3443;SDS011;1736;52.068;6.968;2023-03-01T14:29:44;5.70;;;4.10;;
3443;SDS011;1736;52.068;6.968;2023-03-01T14:32:22;5.87;;;4.30;;
3443;SDS011;1736;52.068;6.968;2023-03-01T14:34:51;5.20;;;4.37;;
3443;SDS011;1736;52.068;6.968;2023-03-01T14:37:20;5.60;;;4.00;;
3443;SDS011;1736;52.068;6.968;2023-03-01T14:39:48;4.43;;;4.03;;
3443;SDS011;1736;52.068;6.968;2023-03-01T14:42:15;5.90;;;4.43;;
3443;SDS011;1736;52.068;6.968;2023-03-01T14:44:43;5.50;;;4.50;;
3443;SDS011;1736;52.068;6.968;2023-03-01T14:47:12;6.00;;;4.30;;
3443;SDS011;1736;52.068;6.968;2023-03-01T14:49:42;4.90;;;4.10;;
3443;SDS011;1736;52.068;6.968;2023-03-01T14:52:17;6.17;;;4.80;;
3443;SDS011;1736;52.068;6.968;2023-03-01T14:54:47;5.13;;;4.13;;
3443;SDS011;1736;52.068;6.968;2023-03-01T14:57:16;6.27;;;4.50;;
3443;SDS011;1736;52.068;6.968;2023-03-01T14:59:46;6.03;;;4.57;;
3443;SDS011;1736;52.068;6.968;2023-03-01T15:02:17;6.10;;;4.30;;
3443;SDS011;1736;52.068;6.968;2023-03-01T15:04:45;5.57;;;3.80;;
3443;SDS011;1736;52.068;6.968;2023-03-01T15:07:14;5.60;;;4.30;;
3443;SDS011;1736;52.068;6.968;2023-03-01T15:09:43;7.07;;;4.80;;
3443;SDS011;1736;52.068;6.968;2023-03-01T15:17:50;5.67;;;4.40;;
3443;SDS011;1736;52.068;6.968;2023-03-01T15:20:21;5.10;;;3.93;;
3443;SDS011;1736;52.068;6.968;2023-03-01T15:22:52;6.37;;;4.33;;
3443;SDS011;1736;52.068;6.968;2023-03-01T15:25:21;5.70;;;4.40;;
3443;SDS011;1736;52.068;6.968;2023-03-01T15:27:51;5.93;;;4.53;;
3443;SDS011;1736;52.068;6.968;2023-03-01T15:30:20;9.80;;;4.90;;
3443;SDS011;1736;52.068;6.968;2023-03-01T15:32:54;4.30;;;3.90;;
3443;SDS011;1736;52.068;6.968;2023-03-01T15:35:56;6.03;;;4.10;;
3443;SDS011;1736;52.068;6.968;2023-03-01T15:38:28;5.10;;;3.87;;
3443;SDS011;1736;52.068;6.968;2023-03-01T15:40:58;5.93;;;4.07;;